createdAt,value
2023-05-25T00:01:25.720Z,6.37
2023-05-25T00:03:54.780Z,6.53
2023-05-25T00:06:22.420Z,5.80
2023-05-25T00:08:50.912Z,5.53
2023-05-25T00:11:18.942Z,6.27
2023-05-25T00:13:46.234Z,5.63
2023-05-25T00:16:14.508Z,5.60
2023-05-25T00:18:42.627Z,5.93
2023-05-25T00:21:11.267Z,4.87
2023-05-25T00:23:38.545Z,5.47
2023-05-25T00:26:05.986Z,6.17
2023-05-25T00:28:52.037Z,6.37
2023-05-25T00:31:20.149Z,5.87
2023-05-25T00:33:47.649Z,6.23
2023-05-25T00:36:15.108Z,6.47
2023-05-25T00:38:42.512Z,6.10
2023-05-25T00:41:12.977Z,5.80
2023-05-25T00:43:40.727Z,6.13
2023-05-25T00:46:09.859Z,6.07
2023-05-25T00:48:40.274Z,6.47
2023-05-25T00:51:09.613Z,6.47
2023-05-25T00:53:37.518Z,5.40
2023-05-25T00:56:10.324Z,6.17
2023-05-25T00:58:40.972Z,6.20
2023-05-25T01:01:11.733Z,6.37
2023-05-25T01:03:42.401Z,7.40
2023-05-25T01:06:13.989Z,7.13
2023-05-25T01:08:45.287Z,7.60
2023-05-25T01:11:14.329Z,7.13
2023-05-25T01:13:43.745Z,5.73
2023-05-25T01:16:11.939Z,7.03
2023-05-25T01:18:41.293Z,6.50
2023-05-25T01:21:14.425Z,6.57
2023-05-25T01:23:46.664Z,6.13
2023-05-25T01:26:17.684Z,6.67
2023-05-25T01:28:50.060Z,6.67
2023-05-25T01:31:20.647Z,7.50
2023-05-25T01:33:49.838Z,6.80
2023-05-25T01:36:18.220Z,7.00
2023-05-25T01:38:45.864Z,6.93
2023-05-25T01:41:13.230Z,7.60
2023-05-25T01:43:41.186Z,7.43
2023-05-25T01:46:18.163Z,6.90
2023-05-25T01:48:57.469Z,8.07
2023-05-25T01:51:36.556Z,6.70
2023-05-25T01:54:09.072Z,7.53
2023-05-25T01:56:37.352Z,7.60
2023-05-25T01:59:07.831Z,7.53
2023-05-25T02:01:36.604Z,7.40
2023-05-25T02:04:04.672Z,7.70
2023-05-25T02:06:32.773Z,7.30
2023-05-25T02:09:00.131Z,6.87
2023-05-25T02:11:27.773Z,6.50
2023-05-25T02:13:55.163Z,8.53
2023-05-25T02:16:22.685Z,7.10
2023-05-25T02:18:50.778Z,6.87
2023-05-25T02:21:18.175Z,6.53
2023-05-25T02:23:47.213Z,7.07
2023-05-25T02:26:15.333Z,7.50
2023-05-25T02:28:42.698Z,7.80
2023-05-25T02:31:10.059Z,7.03
2023-05-25T02:33:37.485Z,6.80
2023-05-25T02:36:05.293Z,7.30
2023-05-25T02:38:32.759Z,6.57
2023-05-25T02:41:00.873Z,7.33
2023-05-25T02:43:28.340Z,6.63
2023-05-25T02:45:55.712Z,6.90
2023-05-25T02:48:23.196Z,7.50
2023-05-25T02:50:50.727Z,7.10
2023-05-25T02:53:18.131Z,7.90
2023-05-25T02:55:45.864Z,7.27
2023-05-25T02:58:14.202Z,7.43
2023-05-25T03:00:42.508Z,7.73
2023-05-25T03:03:10.263Z,8.87
2023-05-25T03:05:37.841Z,8.20
2023-05-25T03:08:05.520Z,7.73
2023-05-25T03:10:32.941Z,7.30
2023-05-25T03:13:00.385Z,7.77
2023-05-25T03:15:28.483Z,8.00
2023-05-25T03:18:00.418Z,7.53
2023-05-25T03:20:28.457Z,8.20
2023-05-25T03:22:56.171Z,6.97
2023-05-25T03:25:23.625Z,7.60
2023-05-25T03:27:53.061Z,6.50
2023-05-25T03:30:20.736Z,8.43
2023-05-25T03:32:48.882Z,8.27
2023-05-25T03:35:16.512Z,9.63
2023-05-25T03:37:43.862Z,7.30
2023-05-25T03:40:11.709Z,7.00
2023-05-25T03:42:39.513Z,8.30
2023-05-25T03:45:08.702Z,8.53
2023-05-25T03:47:37.120Z,7.60
2023-05-25T03:50:06.379Z,7.57
2023-05-25T03:52:33.866Z,7.97
2023-05-25T03:55:01.415Z,7.93
2023-05-25T03:57:28.934Z,7.33
2023-05-25T03:59:56.444Z,6.07
2023-05-25T04:02:23.926Z,7.10
2023-05-25T04:04:52.964Z,7.00
2023-05-25T04:07:21.217Z,7.83
2023-05-25T04:09:48.551Z,8.07
2023-05-25T04:12:16.039Z,7.97
2023-05-25T04:14:43.543Z,7.03
2023-05-25T04:17:10.923Z,7.53
2023-05-25T04:19:38.248Z,7.10
2023-05-25T04:22:05.745Z,7.70
2023-05-25T04:24:33.753Z,7.73
2023-05-25T04:27:01.808Z,7.93
2023-05-25T04:29:29.353Z,8.70
2023-05-25T04:31:56.832Z,8.73
2023-05-25T04:34:24.262Z,8.17
2023-05-25T04:36:52.456Z,8.07
2023-05-25T04:39:19.776Z,9.00
2023-05-25T04:41:48.023Z,8.40
2023-05-25T04:44:15.377Z,8.40
2023-05-25T04:46:43.983Z,9.87
2023-05-25T04:49:12.773Z,7.90
2023-05-25T04:51:40.150Z,8.80
2023-05-25T04:54:07.449Z,8.30
2023-05-25T04:56:34.875Z,8.60
2023-05-25T04:59:03.712Z,8.50
2023-05-25T05:01:33.653Z,8.53
2023-05-25T05:04:01.071Z,9.53
2023-05-25T05:06:28.550Z,7.80
2023-05-25T05:08:56.008Z,7.43
2023-05-25T05:11:23.338Z,8.20
2023-05-25T05:13:50.684Z,7.37
2023-05-25T05:16:18.761Z,8.40
2023-05-25T05:18:46.075Z,6.90
2023-05-25T05:21:13.574Z,6.47
2023-05-25T05:23:42.136Z,6.93
2023-05-25T05:26:10.822Z,7.47
2023-05-25T05:28:38.258Z,7.53
2023-05-25T05:31:06.137Z,6.20
2023-05-25T05:33:34.238Z,7.00
2023-05-25T05:36:04.015Z,7.13
2023-05-25T05:38:31.425Z,7.30
2023-05-25T05:40:58.747Z,6.73
2023-05-25T05:43:26.045Z,8.10
2023-05-25T05:45:53.462Z,7.17
2023-05-25T05:48:20.812Z,6.73
2023-05-25T05:50:49.028Z,7.57
2023-05-25T05:53:16.673Z,7.60
2023-05-25T05:55:44.207Z,6.73
2023-05-25T05:58:11.665Z,7.37
2023-05-25T06:00:39.061Z,7.27
2023-05-25T06:03:06.446Z,7.50
2023-05-25T06:05:33.882Z,6.90
2023-05-25T06:08:04.000Z,6.90
2023-05-25T06:10:32.421Z,6.00
2023-05-25T06:12:59.681Z,7.10
2023-05-25T06:15:27.031Z,6.90
2023-05-25T06:17:54.424Z,6.23
2023-05-25T06:20:22.074Z,7.23
2023-05-25T06:22:49.466Z,7.47
2023-05-25T06:25:17.576Z,7.47
2023-05-25T06:27:44.934Z,6.17
2023-05-25T06:30:12.820Z,6.80
2023-05-25T06:32:41.105Z,8.30
2023-05-25T06:35:09.133Z,6.37
2023-05-25T06:37:37.495Z,6.77
2023-05-25T06:40:05.331Z,6.47
2023-05-25T06:42:33.282Z,7.50
2023-05-25T06:45:00.641Z,7.27
2023-05-25T06:47:29.930Z,7.90
2023-05-25T06:49:58.435Z,8.03
2023-05-25T06:52:27.528Z,7.67
2023-05-25T06:54:55.138Z,7.23
2023-05-25T06:57:22.458Z,6.80
2023-05-25T06:59:50.665Z,6.87
2023-05-25T07:02:18.207Z,6.77
2023-05-25T07:04:45.761Z,8.00
2023-05-25T07:07:13.475Z,7.97
2023-05-25T07:09:41.380Z,7.70
2023-05-25T07:12:10.338Z,7.20
2023-05-25T07:14:37.844Z,6.27
2023-05-25T07:17:06.710Z,5.83
2023-05-25T07:19:34.051Z,6.00
2023-05-25T07:22:01.367Z,6.47
2023-05-25T07:24:28.684Z,6.83
2023-05-25T07:26:56.002Z,5.53
2023-05-25T07:29:24.134Z,5.73
2023-05-25T07:31:51.568Z,6.10
2023-05-25T07:34:19.817Z,6.33
2023-05-25T07:36:47.234Z,7.13
2023-05-25T07:39:14.586Z,7.43
2023-05-25T07:41:41.944Z,6.30
2023-05-25T07:44:09.301Z,6.23
2023-05-25T07:46:36.614Z,5.67
2023-05-25T07:49:05.562Z,5.80
2023-05-25T07:51:33.554Z,6.60
2023-05-25T07:54:00.878Z,5.53
2023-05-25T07:56:28.420Z,6.90
2023-05-25T07:58:56.193Z,6.23
2023-05-25T08:01:26.267Z,6.80
2023-05-25T08:03:54.375Z,6.07
2023-05-25T08:06:21.760Z,6.03
2023-05-25T08:08:49.795Z,6.70
2023-05-25T08:11:17.291Z,5.40
2023-05-25T08:13:44.728Z,8.17
2023-05-25T08:16:12.047Z,5.40
2023-05-25T08:18:40.256Z,6.60
2023-05-25T08:21:07.613Z,6.60
2023-05-25T08:23:35.282Z,6.40
2023-05-25T08:26:11.068Z,5.73
2023-05-25T08:28:48.094Z,6.20
2023-05-25T08:31:15.485Z,6.30
2023-05-25T08:33:42.840Z,6.63
2023-05-25T08:36:10.651Z,5.70
2023-05-25T08:38:37.961Z,3.83
2023-05-25T08:41:07.190Z,4.70
2023-05-25T08:43:35.095Z,5.47
2023-05-25T08:46:05.713Z,5.30
2023-05-25T08:48:41.129Z,5.40
2023-05-25T08:51:10.931Z,5.10
2023-05-25T08:53:40.905Z,4.50
2023-05-25T08:56:13.947Z,5.80
2023-05-25T08:58:52.174Z,4.83
2023-05-25T09:01:22.857Z,6.10
2023-05-25T09:03:51.134Z,5.73
2023-05-25T09:06:18.804Z,6.13
2023-05-25T09:08:46.611Z,5.53
2023-05-25T09:11:17.455Z,6.13
2023-05-25T09:13:50.165Z,5.10
2023-05-25T09:16:18.623Z,5.43
2023-05-25T09:18:45.932Z,5.90
2023-05-25T09:21:13.340Z,5.60
2023-05-25T09:23:41.762Z,5.37
2023-05-25T09:26:09.244Z,6.03
2023-05-25T09:28:46.218Z,5.30
2023-05-25T09:31:14.327Z,5.50
2023-05-25T09:33:42.790Z,5.00
2023-05-25T09:36:10.537Z,6.23
2023-05-25T09:38:40.311Z,5.33
2023-05-25T09:41:08.024Z,8.00
2023-05-25T09:43:44.735Z,5.60
2023-05-25T09:46:16.748Z,5.53
2023-05-25T09:48:45.075Z,5.60
2023-05-25T09:51:12.697Z,5.60
2023-05-25T09:53:40.557Z,5.70
2023-05-25T09:56:07.955Z,5.20
2023-05-25T09:58:36.595Z,5.90
2023-05-25T10:01:04.277Z,5.30
2023-05-25T10:03:32.523Z,6.17
2023-05-25T10:06:00.753Z,4.47
2023-05-25T10:08:29.269Z,6.40
2023-05-25T10:10:56.698Z,5.20
2023-05-25T10:13:26.873Z,6.13
2023-05-25T10:15:55.203Z,5.17
2023-05-25T10:18:26.601Z,7.53
2023-05-25T10:21:01.967Z,4.80
2023-05-25T10:23:35.294Z,6.10
2023-05-25T10:26:05.591Z,5.40
2023-05-25T10:28:36.827Z,4.60
2023-05-25T10:31:06.661Z,4.33
2023-05-25T10:33:34.394Z,4.73
2023-05-25T10:36:10.893Z,5.47
2023-05-25T10:38:41.212Z,6.30
2023-05-25T10:41:10.537Z,6.20
2023-05-25T10:43:38.849Z,5.67
2023-05-25T10:46:07.962Z,6.43
2023-05-25T10:48:39.308Z,5.93
2023-05-25T10:51:08.312Z,5.63
2023-05-25T10:53:37.418Z,4.90
2023-05-25T10:56:06.007Z,5.50
2023-05-25T10:58:33.797Z,3.70
2023-05-25T11:01:03.348Z,5.40
2023-05-25T11:03:54.134Z,4.60
2023-05-25T11:06:23.221Z,5.00
2023-05-25T11:08:53.667Z,4.50
2023-05-25T11:11:22.148Z,5.00
2023-05-25T11:13:50.100Z,5.00
2023-05-25T11:16:20.036Z,4.80
2023-05-25T11:18:55.148Z,3.00
2023-05-25T11:21:39.916Z,4.83
2023-05-25T11:24:13.919Z,4.63
2023-05-25T11:26:54.491Z,4.10
2023-05-25T11:29:22.065Z,3.60
2023-05-25T11:31:54.481Z,3.90
2023-05-25T11:34:24.397Z,4.50
2023-05-25T11:36:55.372Z,4.43
2023-05-25T11:39:23.448Z,4.03
2023-05-25T11:41:55.165Z,4.17
2023-05-25T11:44:30.324Z,4.27
2023-05-25T11:47:00.782Z,5.20
2023-05-25T11:49:28.964Z,4.20
2023-05-25T11:51:57.641Z,3.80
2023-05-25T11:54:26.207Z,4.40
2023-05-25T11:56:56.005Z,4.70
2023-05-25T11:59:24.530Z,4.90
2023-05-25T12:01:59.027Z,4.40
2023-05-25T12:04:27.497Z,4.20
2023-05-25T12:07:02.717Z,4.40
2023-05-25T12:09:30.276Z,4.73
2023-05-25T12:11:57.905Z,5.40
2023-05-25T12:14:25.252Z,4.20
2023-05-25T12:16:53.036Z,4.30
2023-05-25T12:19:21.532Z,4.53
2023-05-25T12:21:50.849Z,3.93
2023-05-25T12:24:19.066Z,3.90
2023-05-25T12:26:50.569Z,3.97
2023-05-25T12:29:18.086Z,5.10
2023-05-25T12:31:45.592Z,4.57
2023-05-25T12:34:13.880Z,4.67
2023-05-25T12:36:43.219Z,5.10
2023-05-25T12:39:12.540Z,4.60
2023-05-25T12:41:47.520Z,5.10
2023-05-25T12:44:23.355Z,4.47
2023-05-25T12:46:52.869Z,4.13
2023-05-25T12:49:28.118Z,5.20
2023-05-25T12:51:56.110Z,4.77
2023-05-25T12:54:44.470Z,4.90
2023-05-25T12:57:13.741Z,4.57
2023-05-25T12:59:42.112Z,4.37
2023-05-25T13:02:10.035Z,4.07
2023-05-25T13:04:39.395Z,4.30
2023-05-25T13:07:08.197Z,4.83
2023-05-25T13:09:36.041Z,4.80
2023-05-25T13:12:05.916Z,5.00
2023-05-25T13:14:33.350Z,4.60
2023-05-25T13:17:00.672Z,4.37
2023-05-25T13:19:28.058Z,5.10
2023-05-25T13:21:56.065Z,4.93
2023-05-25T13:24:23.657Z,6.17
2023-05-25T13:26:51.337Z,4.80
2023-05-25T13:29:19.439Z,4.50
2023-05-25T13:31:47.486Z,5.43
2023-05-25T13:34:15.043Z,4.20
2023-05-25T13:36:42.494Z,4.23
2023-05-25T13:39:12.768Z,4.60
2023-05-25T13:41:40.393Z,5.30
2023-05-25T13:44:07.865Z,4.97
2023-05-25T13:46:36.922Z,4.47
2023-05-25T13:49:04.515Z,4.67
2023-05-25T13:51:34.753Z,5.03
2023-05-25T13:54:02.695Z,4.70
2023-05-25T13:56:30.061Z,4.77
2023-05-25T13:58:57.464Z,5.27
2023-05-25T14:01:27.226Z,5.33
2023-05-25T14:03:55.384Z,4.33
2023-05-25T14:06:22.844Z,5.40
2023-05-25T14:08:50.154Z,4.97
2023-05-25T14:11:20.033Z,5.70
2023-05-25T14:13:51.553Z,4.83
2023-05-25T14:16:19.036Z,5.57
2023-05-25T14:18:46.373Z,5.10
2023-05-25T14:21:14.381Z,5.67
2023-05-25T14:23:41.717Z,5.30
2023-05-25T14:26:09.111Z,5.23
2023-05-25T14:28:36.461Z,4.50
2023-05-25T14:31:03.948Z,4.40
2023-05-25T14:33:31.381Z,5.47
2023-05-25T14:35:58.702Z,5.50
2023-05-25T14:38:27.313Z,4.80
2023-05-25T14:40:54.654Z,3.87
2023-05-25T14:43:21.943Z,4.50
2023-05-25T14:45:49.251Z,4.40
2023-05-25T14:48:18.105Z,4.43
2023-05-25T14:50:45.595Z,5.30
2023-05-25T14:53:12.946Z,5.10
2023-05-25T14:55:40.978Z,5.30
2023-05-25T14:58:08.372Z,4.53
2023-05-25T15:00:35.756Z,4.83
2023-05-25T15:03:03.196Z,4.80
2023-05-25T15:05:30.661Z,4.60
2023-05-25T15:07:58.468Z,4.57
2023-05-25T15:10:25.821Z,4.80
2023-05-25T15:12:53.788Z,4.57
2023-05-25T15:15:21.112Z,4.50
2023-05-25T15:17:48.474Z,5.00
2023-05-25T15:20:15.964Z,5.10
2023-05-25T15:22:43.827Z,4.90
2023-05-25T15:25:11.350Z,5.97
2023-05-25T15:27:39.195Z,4.87
2023-05-25T15:30:08.722Z,4.73
2023-05-25T15:32:36.048Z,4.27
2023-05-25T15:35:03.612Z,4.90
2023-05-25T15:37:30.963Z,5.23
2023-05-25T15:39:58.295Z,4.80
2023-05-25T15:42:25.668Z,4.70
2023-05-25T15:44:52.995Z,5.20
2023-05-25T15:47:20.993Z,5.03
2023-05-25T15:49:48.331Z,5.07
2023-05-25T15:52:16.311Z,4.53
2023-05-25T15:54:43.646Z,4.37
2023-05-25T15:57:10.963Z,5.17
2023-05-25T15:59:38.339Z,5.50
2023-05-25T16:02:06.198Z,4.60
2023-05-25T16:04:34.243Z,4.43
2023-05-25T16:07:01.586Z,4.17
2023-05-25T16:09:29.281Z,4.57
2023-05-25T16:11:56.669Z,4.57
2023-05-25T16:14:24.030Z,4.43
2023-05-25T16:16:51.378Z,5.20
2023-05-25T16:19:18.835Z,5.60
2023-05-25T16:21:46.908Z,4.90
2023-05-25T16:24:16.321Z,4.10
2023-05-25T16:26:43.673Z,5.40
2023-05-25T16:29:10.972Z,5.00
2023-05-25T16:31:38.279Z,4.17
2023-05-25T16:34:05.632Z,4.43
2023-05-25T16:36:32.933Z,4.90
2023-05-25T16:39:00.878Z,4.50
2023-05-25T16:41:28.233Z,4.80
2023-05-25T16:43:55.586Z,4.57
2023-05-25T16:46:24.540Z,4.67
2023-05-25T16:48:51.886Z,4.00
2023-05-25T16:51:19.200Z,4.30
2023-05-25T16:53:46.617Z,4.80
2023-05-25T16:56:14.867Z,4.87
2023-05-25T16:58:42.186Z,4.77
2023-05-25T17:01:10.776Z,4.80
2023-05-25T17:03:38.134Z,5.13
2023-05-25T17:06:06.124Z,4.43
2023-05-25T17:08:34.459Z,6.07
2023-05-25T17:11:01.929Z,4.90
2023-05-25T17:13:30.044Z,4.73
2023-05-25T17:15:57.730Z,4.63
2023-05-25T17:18:26.192Z,5.27
2023-05-25T17:20:54.442Z,4.70
2023-05-25T17:23:21.774Z,4.87
2023-05-25T17:25:49.180Z,4.70
2023-05-25T17:28:16.560Z,5.97
2023-05-25T17:30:44.808Z,5.17
2023-05-25T17:33:12.149Z,5.10
2023-05-25T17:35:39.636Z,5.20
2023-05-25T17:38:06.987Z,5.33
2023-05-25T17:40:34.322Z,6.27
2023-05-25T17:43:01.770Z,4.97
2023-05-25T17:45:29.189Z,5.40
2023-05-25T17:47:57.783Z,5.50
2023-05-25T17:50:25.145Z,5.40
2023-05-25T17:52:52.477Z,4.43
2023-05-25T17:55:20.189Z,5.00
2023-05-25T17:57:47.524Z,5.90
2023-05-25T18:00:19.109Z,5.13
2023-05-25T18:02:46.482Z,5.70
2023-05-25T18:05:14.533Z,4.43
2023-05-25T18:07:41.840Z,4.70
2023-05-25T18:10:09.879Z,5.30
2023-05-25T18:12:37.178Z,5.37
2023-05-25T18:15:05.091Z,5.17
2023-05-25T18:17:32.401Z,6.77
2023-05-25T18:19:59.825Z,5.17
2023-05-25T18:22:27.906Z,5.17
2023-05-25T18:24:55.265Z,6.03
2023-05-25T18:27:22.567Z,5.87
2023-05-25T18:29:49.883Z,5.57
2023-05-25T18:32:17.265Z,5.00
2023-05-25T18:34:44.640Z,5.33
2023-05-25T18:37:11.907Z,4.53
2023-05-25T18:39:39.905Z,5.43
2023-05-25T18:42:07.972Z,5.13
2023-05-25T18:44:35.716Z,4.40
2023-05-25T18:47:03.136Z,5.20
2023-05-25T18:49:33.673Z,5.97
2023-05-25T18:52:01.121Z,6.20
2023-05-25T18:54:28.984Z,5.20
2023-05-25T18:56:57.070Z,5.30
2023-05-25T18:59:24.446Z,5.33
2023-05-25T19:01:51.834Z,5.30
2023-05-25T19:04:19.314Z,4.60
2023-05-25T19:06:46.689Z,5.57
2023-05-25T19:09:14.093Z,5.40
2023-05-25T19:11:41.398Z,5.07
2023-05-25T19:14:09.426Z,5.43
2023-05-25T19:16:36.798Z,5.80
2023-05-25T19:19:04.205Z,4.60
2023-05-25T19:21:32.509Z,5.10
2023-05-25T19:23:59.993Z,4.63
2023-05-25T19:26:27.324Z,4.27
2023-05-25T19:28:54.765Z,5.37
2023-05-25T19:31:22.902Z,4.83
2023-05-25T19:33:50.225Z,4.80
2023-05-25T19:36:17.538Z,5.23
2023-05-25T19:38:44.861Z,5.67
2023-05-25T19:41:12.166Z,4.77
2023-05-25T19:43:39.542Z,5.50
2023-05-25T19:46:07.145Z,5.20
2023-05-25T19:48:35.794Z,5.30
2023-05-25T19:51:03.220Z,5.20
2023-05-25T19:53:30.818Z,5.70
2023-05-25T19:55:58.178Z,5.50
2023-05-25T19:58:25.676Z,5.10
2023-05-25T20:00:53.646Z,4.80
2023-05-25T20:03:21.125Z,5.53
2023-05-25T20:05:49.315Z,6.07
2023-05-25T20:08:16.646Z,5.23
2023-05-25T20:10:44.436Z,4.97
2023-05-25T20:13:11.937Z,5.40
2023-05-25T20:15:39.331Z,5.40
2023-05-25T20:18:06.743Z,6.20
2023-05-25T20:20:34.164Z,5.20
2023-05-25T20:23:03.039Z,5.20
2023-05-25T20:25:30.693Z,5.87
2023-05-25T20:27:58.117Z,5.37
2023-05-25T20:30:25.591Z,5.83
2023-05-25T20:32:52.976Z,5.50
2023-05-25T20:35:20.300Z,5.23
2023-05-25T20:37:48.115Z,5.07
2023-05-25T20:40:16.163Z,6.70
2023-05-25T20:42:43.498Z,6.60
2023-05-25T20:45:10.995Z,6.63
2023-05-25T20:47:39.914Z,6.90
2023-05-25T20:50:08.068Z,6.30
2023-05-25T20:52:35.595Z,6.30
2023-05-25T20:55:03.148Z,5.93
2023-05-25T20:57:31.217Z,6.30
2023-05-25T20:59:59.199Z,6.73
2023-05-25T21:02:27.876Z,5.80
2023-05-25T21:04:55.501Z,6.50
2023-05-25T21:07:23.066Z,6.60
2023-05-25T21:09:50.867Z,6.80
2023-05-25T21:12:18.395Z,7.00
2023-05-25T21:14:46.498Z,6.40
2023-05-25T21:17:16.656Z,6.60
2023-05-25T21:19:44.210Z,6.27
2023-05-25T21:22:13.239Z,7.37
2023-05-25T21:24:40.744Z,6.07
2023-05-25T21:27:08.477Z,7.17
2023-05-25T21:29:36.109Z,6.70
2023-05-25T21:32:04.726Z,7.20
2023-05-25T21:34:34.870Z,6.70
2023-05-25T21:37:02.697Z,6.83
2023-05-25T21:39:30.241Z,6.60
2023-05-25T21:41:57.909Z,6.47
2023-05-25T21:44:25.312Z,6.60
2023-05-25T21:46:52.757Z,6.13
2023-05-25T21:49:20.895Z,5.90
2023-05-25T21:51:48.344Z,5.50
2023-05-25T21:54:29.397Z,6.37
2023-05-25T21:57:03.593Z,6.00
2023-05-25T21:59:30.951Z,7.23
2023-05-25T22:01:58.379Z,7.20
2023-05-25T22:04:26.456Z,8.10
2023-05-25T22:06:56.205Z,8.67
2023-05-25T22:09:23.775Z,6.33
2023-05-25T22:11:51.114Z,7.40
2023-05-25T22:14:18.403Z,7.53
2023-05-25T22:16:45.831Z,7.77
2023-05-25T22:19:13.716Z,6.97
2023-05-25T22:21:41.842Z,8.20
2023-05-25T22:24:09.145Z,7.10
2023-05-25T22:26:36.554Z,6.70
2023-05-25T22:29:03.907Z,6.17
2023-05-25T22:31:31.320Z,6.93
2023-05-25T22:33:58.705Z,6.80
2023-05-25T22:36:25.977Z,7.80
2023-05-25T22:38:53.991Z,7.00
2023-05-25T22:41:22.187Z,7.30
2023-05-25T22:43:49.610Z,8.10
2023-05-25T22:46:17.101Z,6.87
2023-05-25T22:48:44.466Z,7.40
2023-05-25T22:51:11.904Z,6.80
2023-05-25T22:53:39.766Z,6.27
2023-05-25T22:56:08.160Z,7.47
2023-05-25T22:58:35.518Z,6.73
2023-05-25T23:01:02.872Z,7.80
2023-05-25T23:03:30.461Z,6.40
2023-05-25T23:05:58.016Z,7.67
2023-05-25T23:08:25.540Z,6.40
2023-05-25T23:10:52.984Z,7.63
2023-05-25T23:13:23.391Z,8.60
2023-05-25T23:15:50.949Z,7.07
2023-05-25T23:18:18.346Z,8.30
2023-05-25T23:20:45.798Z,7.33
2023-05-25T23:23:13.174Z,7.27
2023-05-25T23:25:40.487Z,7.70
2023-05-25T23:28:07.943Z,7.03
2023-05-25T23:30:36.036Z,8.03
2023-05-25T23:33:03.534Z,7.60
2023-05-25T23:35:30.949Z,7.17
2023-05-25T23:38:00.894Z,7.23
2023-05-25T23:40:28.581Z,6.67
2023-05-25T23:42:55.946Z,7.43
2023-05-25T23:45:23.382Z,5.83
2023-05-25T23:47:51.475Z,7.37
2023-05-25T23:50:19.026Z,7.87
2023-05-25T23:52:46.786Z,6.80
2023-05-25T23:55:14.589Z,7.40
2023-05-25T23:57:41.990Z,6.80
